createdAt,value
2017-07-19T11:08:28.721Z,28.52
2017-07-19T11:09:49.945Z,28.78
2017-07-19T11:11:12.113Z,28.93
2017-07-19T11:12:34.267Z,29.04
2017-07-19T11:13:56.397Z,28.93
2017-07-19T11:15:18.673Z,29.08
2017-07-19T11:16:40.686Z,29
2017-07-19T11:18:03.163Z,29
2017-07-19T11:19:25.788Z,29.23
2017-07-19T11:20:48.155Z,29.15
2017-07-19T11:22:10.654Z,29.05
2017-07-19T11:23:31.863Z,29.05
2017-07-19T11:24:53.376Z,28.88
2017-07-19T11:26:15.225Z,28.85
2017-07-19T11:27:37.729Z,28.7
2017-07-19T11:28:59.567Z,28.8
2017-07-19T11:30:22.154Z,28.9
2017-07-19T11:31:44.635Z,29.04
2017-07-19T11:33:06.862Z,28.98
2017-07-19T11:34:29.012Z,29.08
2017-07-19T11:35:51.473Z,29.02
2017-07-19T11:37:13.338Z,29.14
2017-07-19T11:38:35.572Z,29.11
2017-07-19T11:39:57.251Z,29.24
2017-07-19T11:41:20.033Z,29.21
2017-07-19T11:42:42.211Z,29.3
2017-07-19T11:44:03.581Z,29.33
2017-07-19T11:45:26.197Z,29.16
2017-07-19T11:46:47.974Z,29.3
2017-07-19T11:48:10.141Z,29.11
2017-07-19T11:49:32.055Z,29.11
2017-07-19T11:50:53.931Z,29.14
2017-07-19T11:52:16.419Z,29.15
2017-07-19T11:53:38.773Z,29.18
2017-07-19T11:55:00.036Z,29.26
2017-07-19T11:56:21.959Z,29.33
2017-07-19T11:57:44.724Z,29.05
2017-07-19T11:59:07.287Z,29.31
2017-07-19T12:00:29.760Z,29.45
2017-07-19T12:01:51.317Z,29.52
2017-07-19T12:03:13.756Z,29.53
2017-07-19T12:04:35.915Z,29.57
2017-07-19T12:05:58.521Z,29.57
2017-07-19T12:07:21.000Z,29.61
2017-07-19T12:08:43.835Z,29.58
2017-07-19T12:10:05.981Z,29.64
2017-07-19T12:11:28.264Z,29.65
2017-07-19T12:12:50.514Z,29.71
2017-07-19T12:14:12.444Z,29.67
2017-07-19T12:15:34.609Z,29.55
2017-07-19T12:16:57.227Z,29.67
2017-07-19T12:18:19.714Z,29.68
2017-07-19T12:19:42.117Z,29.8
2017-07-19T12:21:04.734Z,29.74
2017-07-19T12:22:26.417Z,29.97
2017-07-19T12:23:48.374Z,30.2
2017-07-19T12:25:10.593Z,30.16
2017-07-19T12:26:32.908Z,30.17
2017-07-19T12:27:55.410Z,30.23
2017-07-19T12:29:17.277Z,30.31
2017-07-19T12:30:40.063Z,30.47
2017-07-19T12:32:02.254Z,30.72
2017-07-19T12:33:24.100Z,30.69
2017-07-19T12:34:46.605Z,30.57
2017-07-19T12:36:08.747Z,30.67
2017-07-19T12:37:30.936Z,30.58
2017-07-19T12:38:53.106Z,30.8
2017-07-19T12:40:15.600Z,30.89
2017-07-19T12:41:37.416Z,31.04
2017-07-19T12:42:59.571Z,30.7
2017-07-19T12:44:22.065Z,30.8
2017-07-19T12:45:44.011Z,30.84
2017-07-19T12:47:06.827Z,30.82
2017-07-19T12:48:29.400Z,31.1
2017-07-19T12:49:51.356Z,30.99
2017-07-19T12:51:13.562Z,30.91
2017-07-19T12:52:35.525Z,30.91
2017-07-19T12:53:58.037Z,30.92
2017-07-19T12:55:20.231Z,31.12
2017-07-19T12:56:41.776Z,30.99
2017-07-19T12:58:04.570Z,30.99
2017-07-19T12:59:27.155Z,30.89
2017-07-19T13:00:48.757Z,30.97
2017-07-19T13:02:11.368Z,31.12
2017-07-19T13:03:33.798Z,31.36
2017-07-19T13:04:56.269Z,31.47
2017-07-19T13:06:18.831Z,31.76
2017-07-19T13:07:41.326Z,31.84
2017-07-19T13:09:03.997Z,31.91
2017-07-19T13:10:26.520Z,32.18
2017-07-19T13:11:48.784Z,31.88
2017-07-19T13:13:10.658Z,31.54
2017-07-19T13:14:33.079Z,31.41
2017-07-19T13:15:54.915Z,31.51
2017-07-19T13:17:17.085Z,31.48
2017-07-19T13:18:39.046Z,31.62
2017-07-19T13:20:02.009Z,31.92
2017-07-19T13:21:24.180Z,31.5
2017-07-19T13:22:46.415Z,31.23
2017-07-19T13:24:08.637Z,31.41
2017-07-19T13:25:31.093Z,31.65
2017-07-19T13:26:52.963Z,31.91
2017-07-19T13:28:15.147Z,31.89
2017-07-19T13:29:37.326Z,31.78
2017-07-19T13:31:00.126Z,31.86
2017-07-19T13:32:22.404Z,32.19
2017-07-19T13:33:44.573Z,31.96
2017-07-19T13:35:06.762Z,31.34
2017-07-19T13:36:29.182Z,31.25
2017-07-19T13:37:51.073Z,31.46
2017-07-19T13:39:13.258Z,31.32
2017-07-19T13:40:35.445Z,31.14
2017-07-19T13:41:57.591Z,31.04
2017-07-19T13:43:19.434Z,31.29
2017-07-19T13:44:41.665Z,31.26
2017-07-19T13:46:03.938Z,31.32
2017-07-19T13:47:26.715Z,31.56
2017-07-19T13:48:48.563Z,31.68
2017-07-19T13:50:10.748Z,31.58
2017-07-19T13:51:33.233Z,31.62
2017-07-19T13:52:55.755Z,31.5
2017-07-19T13:54:17.344Z,31.5
2017-07-19T13:55:39.835Z,31.41
2017-07-19T13:57:02.395Z,31.35
2017-07-19T13:58:24.864Z,31.13
2017-07-19T13:59:47.424Z,30.91
2017-07-19T14:01:09.050Z,30.88
2017-07-19T14:02:31.224Z,30.97
2017-07-19T14:03:53.636Z,30.77
2017-07-19T14:05:16.249Z,30.86
2017-07-19T14:06:38.529Z,30.75
2017-07-19T14:08:00.724Z,30.73
2017-07-19T14:09:22.533Z,30.7
2017-07-19T14:10:44.697Z,30.62
2017-07-19T14:12:06.569Z,30.57
2017-07-19T14:13:28.812Z,30.57
2017-07-19T14:14:51.080Z,30.72
2017-07-19T14:16:13.244Z,30.89
2017-07-19T14:17:35.449Z,30.95
2017-07-19T14:18:56.977Z,30.88
2017-07-19T14:20:19.500Z,30.69
2017-07-19T14:21:41.737Z,30.64
2017-07-19T14:23:03.263Z,30.57
2017-07-19T14:24:25.203Z,30.42
2017-07-19T14:25:48.073Z,30.27
2017-07-19T14:27:10.243Z,30.34
2017-07-19T14:28:31.786Z,30.35
2017-07-19T14:29:54.072Z,30.46
2017-07-19T14:31:16.638Z,30.45
2017-07-19T14:32:38.824Z,30.45
2017-07-19T14:34:00.732Z,30.43
2017-07-19T14:35:22.902Z,30.46
2017-07-19T14:36:45.363Z,30.65
2017-07-19T14:38:08.038Z,30.55
2017-07-19T14:39:31.095Z,30.62
2017-07-19T14:40:53.406Z,30.75
2017-07-19T14:42:15.918Z,30.65
2017-07-19T14:43:38.207Z,30.54
2017-07-19T14:45:00.364Z,30.55
2017-07-19T14:46:22.944Z,30.54
2017-07-19T14:47:45.047Z,30.61
2017-07-19T14:49:07.366Z,30.62
2017-07-19T14:50:29.586Z,30.47
2017-07-19T14:51:52.183Z,30.67
2017-07-19T14:53:14.287Z,30.67
2017-07-19T14:54:36.786Z,30.65
2017-07-19T14:55:58.954Z,30.83
2017-07-19T14:57:21.481Z,30.86
2017-07-19T14:58:43.797Z,30.89
2017-07-19T15:00:05.971Z,30.82
2017-07-19T15:01:28.199Z,30.84
2017-07-19T15:02:50.364Z,30.92
2017-07-19T15:04:12.528Z,30.84
2017-07-19T15:05:34.693Z,30.97
2017-07-19T15:06:57.346Z,31.09
2017-07-19T15:08:19.209Z,30.79
2017-07-19T15:09:41.866Z,30.86
2017-07-19T15:11:03.735Z,31.02
2017-07-19T15:12:25.266Z,30.97
2017-07-19T15:13:47.138Z,30.99
2017-07-19T15:15:08.980Z,30.94
2017-07-19T15:16:31.196Z,30.88
2017-07-19T15:17:53.389Z,30.73
2017-07-19T15:19:14.922Z,30.69
2017-07-19T15:20:37.718Z,30.69
2017-07-19T15:21:59.918Z,30.37
2017-07-19T15:23:22.188Z,30.24
2017-07-19T15:24:43.723Z,30.24
2017-07-19T15:26:05.882Z,30.26
2017-07-19T15:27:27.816Z,30.24
2017-07-19T15:28:50.038Z,30.16
2017-07-19T15:30:12.248Z,30.27
2017-07-19T15:31:34.346Z,30.42
2017-07-19T15:32:56.194Z,30.46
2017-07-19T15:34:18.373Z,30.46
2017-07-19T15:35:39.906Z,30.49
2017-07-19T15:37:02.346Z,30.45
2017-07-19T15:38:23.898Z,30.49
2017-07-19T15:39:46.066Z,30.39
2017-07-19T15:41:08.305Z,30.31
2017-07-19T15:42:30.882Z,30.35
2017-07-19T15:43:53.045Z,30.22
2017-07-19T15:45:15.523Z,30.32
2017-07-19T15:46:37.701Z,30.38
2017-07-19T15:48:00.137Z,30.31
2017-07-19T15:49:22.330Z,30.13
2017-07-19T15:50:44.526Z,30.15
2017-07-19T15:52:06.692Z,30.29
2017-07-19T15:53:28.959Z,30.29
2017-07-19T15:54:51.159Z,30.27
2017-07-19T15:56:13.704Z,30.05
2017-07-19T15:57:35.666Z,30.01
2017-07-19T15:58:58.458Z,30.05
2017-07-19T16:00:20.623Z,29.97
2017-07-19T16:01:42.782Z,30
2017-07-19T16:03:05.263Z,29.87
2017-07-19T16:04:27.747Z,29.89
2017-07-19T16:05:49.905Z,29.74
2017-07-19T16:07:12.052Z,29.74
2017-07-19T16:08:33.602Z,29.6
2017-07-19T16:09:56.347Z,29.51
2017-07-19T16:11:18.849Z,29.48
2017-07-19T16:12:41.438Z,29.52
2017-07-19T16:14:03.823Z,29.52
2017-07-19T16:15:26.642Z,29.65
2017-07-19T16:16:49.205Z,29.61
2017-07-19T16:18:11.135Z,29.71
2017-07-19T16:19:33.652Z,29.7
2017-07-19T16:20:56.407Z,29.73
2017-07-19T16:22:18.695Z,29.94
2017-07-19T16:23:41.208Z,30.11
2017-07-19T16:25:03.375Z,30.27
2017-07-19T16:26:25.798Z,30.43
2017-07-19T16:27:48.266Z,30.7
2017-07-19T16:29:09.808Z,30.73
2017-07-19T16:30:31.744Z,30.75
2017-07-19T16:31:54.458Z,30.73
2017-07-19T16:33:16.947Z,30.65
2017-07-19T16:34:38.838Z,30.49
2017-07-19T16:36:00.668Z,30.46
2017-07-19T16:37:23.179Z,30.29
2017-07-19T16:38:45.831Z,30.17
2017-07-19T16:40:07.117Z,29.92
2017-07-19T16:41:28.959Z,29.8
2017-07-19T16:42:51.078Z,29.71
2017-07-19T16:44:13.666Z,29.64
2017-07-19T16:45:36.176Z,29.6
2017-07-19T16:46:58.104Z,29.64
2017-07-19T16:48:20.848Z,29.53
2017-07-19T16:49:43.344Z,29.61
2017-07-19T16:51:05.200Z,29.51
2017-07-19T16:52:27.706Z,29.34
2017-07-19T16:53:50.247Z,29.43
2017-07-19T16:55:12.843Z,29.39
2017-07-19T16:56:35.358Z,29.27
2017-07-19T16:57:56.940Z,29.18
2017-07-19T16:59:19.426Z,29.12
2017-07-19T17:00:41.306Z,29.06
2017-07-19T17:02:03.477Z,28.9
2017-07-19T17:03:25.457Z,28.89
2017-07-19T17:04:47.369Z,28.81
2017-07-19T17:06:09.855Z,28.8
2017-07-19T17:07:31.757Z,28.71
2017-07-19T17:08:54.271Z,28.54
2017-07-19T17:10:16.774Z,28.51
2017-07-19T17:11:38.982Z,28.36
2017-07-19T17:13:01.166Z,28.22
2017-07-19T17:14:22.762Z,28.18
2017-07-19T17:15:45.866Z,28.15
2017-07-19T17:17:08.068Z,27.96
2017-07-19T17:18:30.610Z,27.94
2017-07-19T17:19:52.960Z,27.88
2017-07-19T17:21:15.403Z,27.84
2017-07-19T17:22:38.001Z,27.7
2017-07-19T17:24:00.495Z,27.65
2017-07-19T17:25:23.013Z,27.62
2017-07-19T17:26:45.419Z,27.57
2017-07-19T17:28:07.287Z,27.47
2017-07-19T17:29:29.465Z,27.49
2017-07-19T17:30:51.374Z,27.41
2017-07-19T17:32:13.836Z,27.4
2017-07-19T17:33:36.362Z,27.31
2017-07-19T17:34:58.019Z,27.31
2017-07-19T17:36:19.916Z,27.28
2017-07-19T17:37:42.102Z,27.28
2017-07-19T17:39:04.079Z,27.24
2017-07-19T17:40:26.706Z,27.09
2017-07-19T17:41:49.200Z,27.14
2017-07-19T17:43:11.766Z,27.1
2017-07-19T17:44:34.256Z,27.03
2017-07-19T17:45:56.447Z,26.97
2017-07-19T17:47:18.921Z,26.91
2017-07-19T17:48:41.847Z,26.89
2017-07-19T17:50:05.149Z,26.76
2017-07-19T17:51:28.389Z,26.84
2017-07-19T17:52:51.221Z,26.65
2017-07-19T17:54:14.240Z,26.7
2017-07-19T17:55:37.441Z,26.65
2017-07-19T17:57:00.190Z,26.57
2017-07-19T17:58:22.735Z,26.63
2017-07-19T17:59:45.802Z,26.63
2017-07-19T18:01:08.624Z,26.51
2017-07-19T18:02:31.179Z,26.54
2017-07-19T18:03:54.331Z,26.58
2017-07-19T18:05:17.373Z,26.52
2017-07-19T18:06:40.212Z,26.54
2017-07-19T18:08:03.294Z,26.52
2017-07-19T18:09:26.504Z,26.47
2017-07-19T18:10:49.557Z,26.4
2017-07-19T18:12:12.218Z,26.33
2017-07-19T18:13:35.078Z,26.28
2017-07-19T18:14:56.899Z,26.35
2017-07-19T18:16:20.336Z,26.3
2017-07-19T18:17:43.431Z,26.1
2017-07-19T18:19:05.678Z,26.07
2017-07-19T18:20:28.135Z,25.8
2017-07-19T18:21:50.951Z,25.36
2017-07-19T18:23:13.203Z,24.83
2017-07-19T18:24:35.555Z,24.55
2017-07-19T18:25:57.746Z,24.15
2017-07-19T18:27:20.626Z,23.68
2017-07-19T18:28:42.813Z,23.27
2017-07-19T18:30:05.033Z,22.94
2017-07-19T18:31:27.525Z,22.67
2017-07-19T18:32:50.018Z,22.45
2017-07-19T18:34:12.538Z,22.21
2017-07-19T18:35:34.787Z,22.14
2017-07-19T18:36:56.966Z,22.1
2017-07-19T18:38:19.814Z,21.99
2017-07-19T18:39:41.995Z,22.07
2017-07-19T18:41:03.854Z,22.03
2017-07-19T18:42:25.760Z,21.99
2017-07-19T18:43:48.528Z,21.98
2017-07-19T18:45:10.724Z,21.88
2017-07-19T18:46:32.912Z,21.75
2017-07-19T18:47:54.786Z,21.68
2017-07-19T18:49:17.273Z,21.61
2017-07-19T18:50:39.136Z,21.5
2017-07-19T18:52:01.318Z,21.46
2017-07-19T18:53:23.515Z,21.52
2017-07-19T18:54:46.013Z,21.49
2017-07-19T18:56:08.216Z,21.4
2017-07-19T18:57:30.472Z,21.42
2017-07-19T18:58:52.983Z,21.49
2017-07-19T19:00:15.957Z,21.47
2017-07-19T19:01:38.155Z,21.47
2017-07-19T19:03:00.769Z,21.43
2017-07-19T19:04:23.368Z,21.47
2017-07-19T19:05:45.560Z,21.43
2017-07-19T19:07:07.845Z,21.47
2017-07-19T19:08:30.172Z,21.44
2017-07-19T19:09:52.665Z,21.35
2017-07-19T19:11:15.455Z,21.21
2017-07-19T19:12:37.346Z,21.22
2017-07-19T19:13:59.912Z,21.19
2017-07-19T19:15:21.465Z,21.21
2017-07-19T19:16:43.629Z,21.14
2017-07-19T19:18:05.943Z,21.16
2017-07-19T19:19:28.205Z,21.12
2017-07-19T19:20:50.834Z,21.12
2017-07-19T19:22:12.675Z,21.13
2017-07-19T19:23:34.927Z,21.13
2017-07-19T19:24:57.211Z,21.12
2017-07-19T19:26:19.376Z,21.13
2017-07-19T19:27:42.145Z,21.22
2017-07-19T19:29:04.364Z,21.25
2017-07-19T19:30:26.636Z,21.14
2017-07-19T19:31:49.154Z,21.12
2017-07-19T19:33:11.346Z,21.22
2017-07-19T19:34:33.845Z,21.19
2017-07-19T19:35:56.049Z,21.16
2017-07-19T19:37:17.954Z,21.1
2017-07-19T19:38:40.780Z,21.19
2017-07-19T19:40:03.278Z,21.17
2017-07-19T19:41:25.556Z,21.04
2017-07-19T19:42:47.866Z,21.04
2017-07-19T19:44:10.076Z,20.79
2017-07-19T19:45:31.968Z,20.62
2017-07-19T19:46:54.566Z,20.5
2017-07-19T19:48:16.798Z,20.35
2017-07-19T19:49:39.003Z,20.2
2017-07-19T19:51:01.214Z,20.16
2017-07-19T19:52:23.476Z,20.13
2017-07-19T19:53:45.765Z,20.11
2017-07-19T19:55:08.253Z,20.08
2017-07-19T19:56:30.799Z,20.1
2017-07-19T19:57:53.107Z,20.06
2017-07-19T19:59:15.366Z,20.1
2017-07-19T20:00:38.173Z,20.11
2017-07-19T20:02:00.355Z,20.05
2017-07-19T20:03:22.583Z,20.06
2017-07-19T20:04:44.423Z,20.13
2017-07-19T20:06:06.247Z,20.11
2017-07-19T20:07:28.795Z,20.06
2017-07-19T20:08:50.702Z,20.08
2017-07-19T20:10:13.228Z,20.1
2017-07-19T20:11:36.025Z,20.11
2017-07-19T20:12:58.183Z,20.08
2017-07-19T20:14:20.452Z,20.1
2017-07-19T20:15:42.977Z,20.05
2017-07-19T20:17:05.765Z,20.05
2017-07-19T20:18:27.656Z,20.03
2017-07-19T20:19:50.206Z,20.06
2017-07-19T20:21:12.768Z,20.14
2017-07-19T20:22:35.563Z,20.13
2017-07-19T20:23:57.763Z,20.11
2017-07-19T20:25:20.014Z,20.17
2017-07-19T20:26:42.669Z,20.23
2017-07-19T20:28:05.415Z,20.21
2017-07-19T20:29:27.328Z,20.17
2017-07-19T20:30:49.819Z,20.18
2017-07-19T20:32:12.127Z,20.18
2017-07-19T20:33:33.952Z,20.23
2017-07-19T20:34:56.444Z,20.11
2017-07-19T20:36:18.625Z,20.1
2017-07-19T20:37:40.500Z,20.11
2017-07-19T20:39:03.244Z,20.06
2017-07-19T20:40:25.868Z,20.06
2017-07-19T20:41:48.365Z,20.06
2017-07-19T20:43:10.859Z,20.08
2017-07-19T20:44:33.414Z,20.13
2017-07-19T20:45:55.267Z,20.03
2017-07-19T20:47:17.218Z,20.01
2017-07-19T20:48:39.699Z,20.05
2017-07-19T20:50:02.290Z,20.1
2017-07-19T20:51:24.497Z,20.05
2017-07-19T20:52:46.682Z,20.01
2017-07-19T20:54:09.181Z,20.08
2017-07-19T20:55:31.779Z,20.13
2017-07-19T20:56:53.939Z,20.05
2017-07-19T20:58:16.125Z,19.98
2017-07-19T20:59:37.969Z,19.99
2017-07-19T21:01:00.459Z,19.95
2017-07-19T21:02:23.058Z,20.08
2017-07-19T21:03:44.945Z,20.05
2017-07-19T21:05:07.121Z,20.01
2017-07-19T21:06:29.589Z,20.05
2017-07-19T21:07:51.763Z,19.99
2017-07-19T21:09:14.057Z,20.06
2017-07-19T21:10:36.529Z,20.05
2017-07-19T21:11:59.259Z,19.98
2017-07-19T21:13:21.446Z,19.99
2017-07-19T21:14:43.605Z,20.05
2017-07-19T21:16:05.477Z,20.05
2017-07-19T21:17:27.268Z,19.96
2017-07-19T21:18:49.134Z,19.95
2017-07-19T21:20:11.639Z,20.03
2017-07-19T21:21:33.883Z,20.05
2017-07-19T21:22:56.318Z,20.05
2017-07-19T21:24:18.641Z,20.01
2017-07-19T21:25:40.478Z,20.03
2017-07-19T21:27:02.659Z,20.01
2017-07-19T21:28:24.730Z,19.96
2017-07-19T21:29:46.576Z,19.98
2017-07-19T21:31:08.713Z,20.06
2017-07-19T21:32:30.550Z,20.01
2017-07-19T21:33:53.400Z,20.06
2017-07-19T21:35:15.598Z,20.02
2017-07-19T21:36:37.560Z,20.02
2017-07-19T21:37:59.410Z,19.95
2017-07-19T21:39:22.400Z,19.96
2017-07-19T21:40:44.577Z,20.01
2017-07-19T21:42:06.770Z,19.96
2017-07-19T21:43:29.256Z,19.96
2017-07-19T21:44:51.789Z,19.95
2017-07-19T21:46:13.681Z,19.96
2017-07-19T21:47:35.890Z,19.95
2017-07-19T21:48:58.080Z,19.98
2017-07-19T21:50:20.537Z,20.03
2017-07-19T21:51:42.489Z,19.94
2017-07-19T21:53:04.659Z,20.03
2017-07-19T21:54:26.880Z,19.91
2017-07-19T21:55:49.275Z,19.96
2017-07-19T21:57:11.469Z,19.88
2017-07-19T21:58:33.759Z,19.83
2017-07-19T21:59:56.257Z,19.84
2017-07-19T22:01:18.791Z,19.87
2017-07-19T22:02:40.985Z,19.84
2017-07-19T22:04:03.447Z,19.88
2017-07-19T22:05:25.938Z,19.88
2017-07-19T22:06:48.739Z,19.83
2017-07-19T22:08:10.329Z,19.71
2017-07-19T22:09:32.179Z,19.74
2017-07-19T22:10:54.023Z,19.76
2017-07-19T22:12:16.474Z,19.78
2017-07-19T22:13:38.010Z,19.74
2017-07-19T22:15:00.216Z,19.73
2017-07-19T22:16:22.707Z,19.73
2017-07-19T22:17:44.819Z,19.61
2017-07-19T22:19:06.738Z,19.74
2017-07-19T22:20:28.575Z,19.73
2017-07-19T22:21:50.450Z,19.59
2017-07-19T22:23:12.982Z,19.61
2017-07-19T22:24:34.819Z,19.65
2017-07-19T22:25:57.042Z,19.55
2017-07-19T22:27:18.925Z,19.62
2017-07-19T22:28:41.341Z,19.59
2017-07-19T22:30:02.565Z,19.63
2017-07-19T22:31:24.167Z,19.62
2017-07-19T22:32:45.705Z,19.61
2017-07-19T22:34:07.813Z,19.54
2017-07-19T22:35:29.051Z,19.54
2017-07-19T22:36:51.237Z,19.46
2017-07-19T22:38:13.407Z,19.51
2017-07-19T22:39:35.261Z,19.4
2017-07-19T22:40:57.756Z,19.47
2017-07-19T22:42:20.243Z,19.41
2017-07-19T22:43:41.848Z,19.33
2017-07-19T22:45:03.999Z,19.33
2017-07-19T22:46:26.023Z,19.37
2017-07-19T22:47:47.885Z,19.33
2017-07-19T22:49:10.084Z,19.22
2017-07-19T22:50:32.692Z,19.23
2017-07-19T22:51:54.546Z,19.26
2017-07-19T22:53:16.733Z,19.25
2017-07-19T22:54:38.088Z,19.22
2017-07-19T22:56:00.295Z,19.11
2017-07-19T22:57:22.246Z,19.07
2017-07-19T22:58:44.514Z,19.1
2017-07-19T23:00:06.027Z,19.19
2017-07-19T23:01:28.800Z,19.11
2017-07-19T23:02:50.652Z,19.18
2017-07-19T23:04:12.818Z,19.19
2017-07-19T23:05:35.299Z,19.16
2017-07-19T23:06:57.831Z,19.16
2017-07-19T23:08:19.976Z,19.16
2017-07-19T23:09:41.687Z,19.1
2017-07-19T23:11:03.843Z,19.25
2017-07-19T23:12:25.606Z,19.11
2017-07-19T23:13:48.223Z,19.16
2017-07-19T23:15:10.748Z,19.18
2017-07-19T23:16:32.908Z,19.21
2017-07-19T23:17:55.601Z,19.23
2017-07-19T23:19:17.457Z,19.16
2017-07-19T23:20:39.360Z,19.21
2017-07-19T23:22:01.526Z,19.19
2017-07-19T23:23:23.978Z,19.21
2017-07-19T23:24:46.466Z,19.18
2017-07-19T23:26:08.984Z,19.16
2017-07-19T23:27:31.336Z,19.14
2017-07-19T23:28:53.593Z,19.1
2017-07-19T23:30:15.120Z,19.1
2017-07-19T23:31:36.676Z,19.08
2017-07-19T23:32:58.831Z,19.02
2017-07-19T23:34:21.292Z,19.06
2017-07-19T23:35:43.112Z,18.92
2017-07-19T23:37:04.641Z,18.91
2017-07-19T23:38:26.487Z,18.88
2017-07-19T23:39:49.036Z,18.92
2017-07-19T23:41:10.547Z,18.87
2017-07-19T23:42:32.193Z,18.95
2017-07-19T23:43:53.711Z,18.92
2017-07-19T23:45:15.487Z,18.88
2017-07-19T23:46:37.987Z,18.85
2017-07-19T23:48:00.155Z,18.85
2017-07-19T23:49:22.127Z,18.84
2017-07-19T23:50:44.234Z,18.84
2017-07-19T23:52:06.087Z,18.75
2017-07-19T23:53:28.007Z,18.78
2017-07-19T23:54:50.555Z,18.85
2017-07-19T23:56:13.064Z,18.81
2017-07-19T23:57:35.230Z,18.84
2017-07-19T23:58:57.378Z,18.85
